createdAt,value
2018-09-18T00:41:13.063Z,3.03
2018-09-18T00:43:42.540Z,3.83
2018-09-18T00:53:42.878Z,4.37
2018-09-18T00:56:15.136Z,3.80
2018-09-18T00:58:45.261Z,3.87
2018-09-18T01:01:15.407Z,5.27
2018-09-18T01:21:59.072Z,4.17
2018-09-18T01:25:09.430Z,2.50
2018-09-18T01:27:38.355Z,3.80
2018-09-18T01:30:12.014Z,3.83
2018-09-18T01:35:54.743Z,3.80
2018-09-18T01:38:24.390Z,2.40
2018-09-18T01:41:00.366Z,5.00
2018-09-18T01:46:40.116Z,3.17
2018-09-18T01:49:10.255Z,3.47
2018-09-18T01:51:48.557Z,2.30
2018-09-18T01:54:17.707Z,3.30
2018-09-18T01:56:46.945Z,2.20
2018-09-18T01:59:16.300Z,2.20
2018-09-18T03:14:36.511Z,5.93
2018-09-18T05:31:25.044Z,2.10
2018-09-18T05:37:24.317Z,3.53
2018-09-18T05:40:01.020Z,3.63
2018-09-18T05:42:30.432Z,4.77
2018-09-18T05:45:00.993Z,4.83
2018-09-18T05:47:43.461Z,7.03
2018-09-18T05:50:15.422Z,14.23
2018-09-18T05:52:43.587Z,7.60
2018-09-18T05:55:11.803Z,7.57
2018-09-18T05:57:39.984Z,26.17
2018-09-18T06:00:09.319Z,11.53
2018-09-18T06:02:37.994Z,10.17
2018-09-18T06:05:06.192Z,9.30
2018-09-18T06:07:34.346Z,10.37
2018-09-18T06:10:02.725Z,11.90
2018-09-18T06:12:31.143Z,9.93
2018-09-18T06:14:59.547Z,13.83
2018-09-18T06:17:27.844Z,10.13
2018-09-18T06:20:46.384Z,10.43
2018-09-18T06:23:14.764Z,9.90
2018-09-18T06:25:42.862Z,4.43
2018-09-18T06:28:11.015Z,7.73
2018-09-18T06:30:39.174Z,9.53
2018-09-18T06:33:11.376Z,8.10
2018-09-18T06:35:39.511Z,7.83
2018-09-18T06:38:07.741Z,14.13
2018-09-18T06:40:35.957Z,4.63
2018-09-18T06:43:04.075Z,5.00
2018-09-18T06:45:32.235Z,14.63
2018-09-18T06:48:00.321Z,11.00
2018-09-18T06:50:28.362Z,11.13
2018-09-18T06:52:56.450Z,7.07
2018-09-18T06:55:24.563Z,12.50
2018-09-18T06:57:52.643Z,9.23
2018-09-18T07:00:20.764Z,5.47
2018-09-18T07:02:48.818Z,7.30
2018-09-18T07:05:16.990Z,4.03
2018-09-18T07:07:45.098Z,3.83
2018-09-18T07:10:13.199Z,2.43
2018-09-18T07:12:41.270Z,3.57
2018-09-18T07:15:09.337Z,5.40
2018-09-18T07:17:37.417Z,7.03
2018-09-18T07:20:05.686Z,4.00
2018-09-18T07:22:33.766Z,4.63
2018-09-18T07:25:01.948Z,8.00
2018-09-18T07:27:30.002Z,6.27
2018-09-18T07:29:58.052Z,5.00
2018-09-18T07:32:26.226Z,4.20
2018-09-18T07:34:54.362Z,4.53
2018-09-18T07:37:22.451Z,3.87
2018-09-18T07:39:50.552Z,4.57
2018-09-18T07:45:39.771Z,3.70
2018-09-18T07:48:07.842Z,3.87
2018-09-18T07:50:36.029Z,4.87
2018-09-18T07:53:04.048Z,2.73
2018-09-18T07:55:32.129Z,3.20
2018-09-18T07:58:00.197Z,4.53
2018-09-18T08:00:28.263Z,2.90
2018-09-18T08:02:56.359Z,2.93
2018-09-18T08:05:24.453Z,5.30
2018-09-18T08:07:52.571Z,5.60
2018-09-18T08:10:20.638Z,4.87
2018-09-18T08:12:48.754Z,3.17
2018-09-18T08:15:16.837Z,2.60
2018-09-18T08:17:44.913Z,5.63
2018-09-18T08:20:12.997Z,5.50
2018-09-18T08:22:41.115Z,6.43
2018-09-18T08:25:09.210Z,3.17
2018-09-18T08:27:37.342Z,3.10
2018-09-18T08:30:05.470Z,2.73
2018-09-18T08:32:33.570Z,3.40
2018-09-18T08:35:01.662Z,5.20
2018-09-18T08:37:30.075Z,3.53
2018-09-18T08:39:58.324Z,3.07
2018-09-18T08:42:26.301Z,3.03
2018-09-18T08:44:54.405Z,2.53
2018-09-18T08:47:22.474Z,5.20
2018-09-18T08:49:50.681Z,4.70
2018-09-18T08:52:18.790Z,3.20
2018-09-18T08:54:46.862Z,3.10
2018-09-18T08:57:14.951Z,5.27
2018-09-18T08:59:43.110Z,5.40
2018-09-18T09:02:11.226Z,8.83
2018-09-18T09:04:39.342Z,6.30
2018-09-18T09:07:07.455Z,5.10
2018-09-18T09:09:35.625Z,6.87
2018-09-18T09:12:03.742Z,6.27
2018-09-18T09:14:31.833Z,6.90
2018-09-18T09:17:00.030Z,3.70
2018-09-18T09:19:28.246Z,3.27
2018-09-18T09:21:56.449Z,6.30
2018-09-18T09:24:24.605Z,4.53
2018-09-18T09:26:52.711Z,4.87
2018-09-18T09:29:20.763Z,4.53
2018-09-18T09:31:48.853Z,5.97
2018-09-18T09:34:17.815Z,2.70
2018-09-18T09:36:45.933Z,6.57
2018-09-18T09:39:14.007Z,2.63
2018-09-18T09:41:42.081Z,4.70
2018-09-18T09:44:10.146Z,5.53
2018-09-18T09:46:38.247Z,4.67
2018-09-18T09:49:06.366Z,3.03
2018-09-18T09:51:34.546Z,2.67
2018-09-18T09:54:02.670Z,4.03
2018-09-18T09:56:30.805Z,2.00
2018-09-18T09:58:58.918Z,2.07
2018-09-18T10:01:32.501Z,5.40
2018-09-18T10:04:00.579Z,2.93
2018-09-18T10:06:28.694Z,5.73
2018-09-18T10:08:56.804Z,5.77
2018-09-18T10:11:24.980Z,3.57
2018-09-18T10:13:53.070Z,5.97
2018-09-18T10:16:21.139Z,2.23
2018-09-18T10:18:49.262Z,5.47
2018-09-18T10:21:17.335Z,2.20
2018-09-18T10:23:45.506Z,3.20
2018-09-18T10:26:13.636Z,2.90
2018-09-18T10:28:41.740Z,2.50
2018-09-18T10:31:09.839Z,3.23
2018-09-18T10:33:37.936Z,2.30
2018-09-18T10:36:06.094Z,2.87
2018-09-18T10:38:34.217Z,1.97
2018-09-18T10:41:02.821Z,3.33
2018-09-18T10:43:30.872Z,3.17
2018-09-18T10:45:59.084Z,3.67
2018-09-18T10:48:27.202Z,3.77
2018-09-18T10:50:55.286Z,3.60
2018-09-18T10:53:23.378Z,1.70
2018-09-18T10:55:51.461Z,2.30
2018-09-18T10:58:19.516Z,1.87
2018-09-18T11:00:47.634Z,4.17
2018-09-18T11:03:15.759Z,4.90
2018-09-18T11:05:43.826Z,2.43
2018-09-18T11:08:12.007Z,5.17
2018-09-18T11:10:40.072Z,2.70
2018-09-18T11:13:08.136Z,3.07
2018-09-18T11:15:36.285Z,3.93
2018-09-18T11:18:04.362Z,4.30
2018-09-18T11:20:32.378Z,3.33
2018-09-18T11:23:00.510Z,2.87
2018-09-18T11:25:28.622Z,2.50
2018-09-18T11:27:56.707Z,2.63
2018-09-18T11:30:24.789Z,3.97
2018-09-18T11:32:52.905Z,3.33
2018-09-18T11:35:20.962Z,3.20
2018-09-18T11:37:49.127Z,1.70
2018-09-18T11:40:17.234Z,2.47
2018-09-18T11:42:45.366Z,4.27
2018-09-18T11:45:13.471Z,2.77
2018-09-18T11:47:41.611Z,3.63
2018-09-18T11:50:09.978Z,1.97
2018-09-18T11:52:38.111Z,3.23
2018-09-18T11:55:06.262Z,3.23
2018-09-18T11:57:34.905Z,2.47
2018-09-18T12:00:03.152Z,3.43
2018-09-18T12:02:31.301Z,2.70
2018-09-18T12:04:59.372Z,2.43
2018-09-18T12:07:27.453Z,2.70
2018-09-18T12:09:55.979Z,2.73
2018-09-18T12:12:24.116Z,4.78
2018-09-18T12:14:52.274Z,3.42
2018-09-18T12:17:20.350Z,1.77
2018-09-18T12:19:48.444Z,2.73
2018-09-18T12:22:16.574Z,4.80
2018-09-18T12:24:44.578Z,2.63
2018-09-18T12:27:12.714Z,2.00
2018-09-18T12:29:41.396Z,3.33
2018-09-18T12:32:09.940Z,2.67
2018-09-18T12:34:38.202Z,2.60
2018-09-18T12:37:06.346Z,2.73
2018-09-18T12:39:34.442Z,2.20
2018-09-18T12:42:02.697Z,2.27
2018-09-18T12:44:30.644Z,1.70
2018-09-18T12:46:58.720Z,8.47
2018-09-18T12:49:27.075Z,1.67
2018-09-18T12:51:55.094Z,2.63
2018-09-18T12:54:23.243Z,6.57
2018-09-18T12:56:51.383Z,1.73
2018-09-18T12:59:19.531Z,4.17
2018-09-18T13:01:47.566Z,2.60
2018-09-18T13:04:15.637Z,2.67
2018-09-18T13:06:43.747Z,3.97
2018-09-18T13:09:13.148Z,2.00
2018-09-18T13:11:41.214Z,3.13
2018-09-18T13:14:09.672Z,4.40
2018-09-18T13:16:38.005Z,5.57
2018-09-18T13:19:06.166Z,3.17
2018-09-18T13:21:34.279Z,5.37
2018-09-18T13:24:02.375Z,4.20
2018-09-18T13:26:30.523Z,3.60
2018-09-18T13:28:58.633Z,3.43
2018-09-18T13:31:26.878Z,2.60
2018-09-18T13:33:55.090Z,4.60
2018-09-18T13:36:23.156Z,2.53
2018-09-18T13:38:51.316Z,3.80
2018-09-18T13:41:19.493Z,1.97
2018-09-18T13:43:47.497Z,2.57
2018-09-18T13:46:15.727Z,4.40
2018-09-18T13:48:43.810Z,2.80
2018-09-18T13:51:12.203Z,5.53
2018-09-18T13:53:40.313Z,3.40
2018-09-18T13:56:08.508Z,2.37
2018-09-18T13:58:36.532Z,2.37
2018-09-18T14:01:04.644Z,2.27
2018-09-18T14:03:32.731Z,1.83
2018-09-18T14:06:00.829Z,4.37
2018-09-18T14:08:28.886Z,3.70
2018-09-18T14:10:56.968Z,4.60
2018-09-18T14:13:25.114Z,4.27
2018-09-18T14:15:53.210Z,2.80
2018-09-18T14:18:21.316Z,2.87
2018-09-18T14:20:49.455Z,4.77
2018-09-18T14:23:17.574Z,3.97
2018-09-18T14:25:45.788Z,3.43
2018-09-18T14:28:13.938Z,3.93
2018-09-18T14:30:42.083Z,3.57
2018-09-18T14:33:10.230Z,6.00
2018-09-18T14:35:38.422Z,4.13
2018-09-18T14:38:06.575Z,4.57
2018-09-18T14:40:34.820Z,7.53
2018-09-18T14:43:02.744Z,7.00
2018-09-18T14:45:30.878Z,2.30
2018-09-18T14:47:59.030Z,2.00
2018-09-18T14:50:27.136Z,2.20
2018-09-18T14:52:55.262Z,6.47
2018-09-18T14:55:23.356Z,2.93
2018-09-18T14:57:51.746Z,4.27
2018-09-18T15:00:19.980Z,2.43
2018-09-18T15:02:48.022Z,6.47
2018-09-18T15:05:16.128Z,4.97
2018-09-18T15:07:45.642Z,3.20
2018-09-18T15:10:13.740Z,6.73
2018-09-18T15:12:41.985Z,4.63
2018-09-18T15:15:10.095Z,6.60
2018-09-18T15:17:38.198Z,5.83
2018-09-18T15:20:06.304Z,3.83
2018-09-18T15:22:35.658Z,4.37
2018-09-18T15:25:04.002Z,3.53
2018-09-18T15:27:32.083Z,2.97
2018-09-18T15:30:00.203Z,3.50
2018-09-18T15:32:28.363Z,4.33
2018-09-18T15:34:56.574Z,4.23
2018-09-18T15:37:24.685Z,4.53
2018-09-18T15:39:52.767Z,6.47
2018-09-18T15:42:20.935Z,3.13
2018-09-18T15:44:49.140Z,4.17
2018-09-18T15:47:17.268Z,4.37
2018-09-18T15:49:45.369Z,4.70
2018-09-18T15:52:13.755Z,3.30
2018-09-18T15:54:41.874Z,5.03
2018-09-18T15:57:10.022Z,3.27
2018-09-18T15:59:38.156Z,2.93
2018-09-18T16:02:06.282Z,8.93
2018-09-18T16:04:34.465Z,8.83
2018-09-18T16:07:02.661Z,9.73
2018-09-18T16:09:30.792Z,9.13
2018-09-18T16:11:58.904Z,7.17
2018-09-18T16:14:27.597Z,7.33
2018-09-18T16:16:55.701Z,8.13
2018-09-18T16:19:23.980Z,7.97
2018-09-18T16:21:52.434Z,9.97
2018-09-18T16:24:20.535Z,6.00
2018-09-18T16:26:48.648Z,9.33
2018-09-18T16:29:16.969Z,10.20
2018-09-18T16:31:45.092Z,8.27
2018-09-18T16:34:13.173Z,5.90
2018-09-18T16:36:41.509Z,10.47
2018-09-18T16:39:09.575Z,11.50
2018-09-18T16:41:37.711Z,10.50
2018-09-18T16:44:06.171Z,10.47
2018-09-18T16:46:34.286Z,4.87
2018-09-18T16:49:03.566Z,9.80
2018-09-18T16:51:31.873Z,14.53
2018-09-18T16:53:59.999Z,6.23
2018-09-18T16:56:28.132Z,6.87
2018-09-18T16:58:56.276Z,10.53
2018-09-18T17:01:24.412Z,9.67
2018-09-18T17:03:52.538Z,9.03
2018-09-18T17:06:20.733Z,8.37
2018-09-18T17:08:48.823Z,7.67
2018-09-18T17:11:16.932Z,8.90
2018-09-18T17:13:45.241Z,8.70
2018-09-18T17:16:13.408Z,11.17
2018-09-18T17:18:41.581Z,10.43
2018-09-18T17:21:09.606Z,12.23
2018-09-18T17:23:37.714Z,10.40
2018-09-18T17:26:05.927Z,11.33
2018-09-18T17:28:34.111Z,11.87
2018-09-18T17:44:20.748Z,7.20
2018-09-18T17:46:48.897Z,14.50
2018-09-18T17:49:16.969Z,9.13
2018-09-18T17:51:46.190Z,7.73
2018-09-18T17:54:14.320Z,11.70
2018-09-18T17:56:42.733Z,11.23
2018-09-18T17:59:10.915Z,7.93
2018-09-18T18:01:39.036Z,14.73
2018-09-18T18:04:07.163Z,13.07
2018-09-18T18:06:35.235Z,9.63
2018-09-18T18:09:04.304Z,14.37
2018-09-18T18:11:32.416Z,12.33
2018-09-18T18:14:00.481Z,12.27
2018-09-18T18:16:30.182Z,15.60
2018-09-18T18:18:58.323Z,10.97
2018-09-18T18:21:27.105Z,14.37
2018-09-18T18:23:55.250Z,15.80
2018-09-18T18:26:23.420Z,15.93
2018-09-18T18:28:51.473Z,15.07
2018-09-18T18:31:19.808Z,11.70
2018-09-18T18:33:47.899Z,13.83
2018-09-18T18:36:16.128Z,13.53
2018-09-18T18:38:44.412Z,10.10
2018-09-18T18:41:12.557Z,9.50
2018-09-18T18:43:40.759Z,9.43
2018-09-18T18:46:08.888Z,10.87
2018-09-18T18:48:37.216Z,12.57
2018-09-18T18:51:05.250Z,11.77
2018-09-18T18:53:33.352Z,9.53
2018-09-18T18:56:01.806Z,15.10
2018-09-18T18:58:29.971Z,14.20
2018-09-18T19:00:58.414Z,14.80
2018-09-18T19:03:26.654Z,7.57
2018-09-18T19:05:54.890Z,17.30
2018-09-18T19:08:23.032Z,10.20
2018-09-18T19:10:51.486Z,12.13
2018-09-18T19:13:19.836Z,12.83
2018-09-18T19:15:48.007Z,12.93
2018-09-18T19:18:16.151Z,15.87
2018-09-18T19:20:44.369Z,15.70
2018-09-18T19:23:12.448Z,12.83
2018-09-18T19:25:40.639Z,8.73
2018-09-18T19:28:08.828Z,14.43
2018-09-18T19:30:36.943Z,12.07
2018-09-18T19:33:05.102Z,9.40
2018-09-18T19:35:33.167Z,12.07
2018-09-18T19:38:01.337Z,15.93
2018-09-18T19:40:29.455Z,13.28
2018-09-18T19:42:58.416Z,10.13
2018-09-18T19:45:26.840Z,12.30
2018-09-18T19:47:54.958Z,11.33
2018-09-18T19:50:23.098Z,12.20
2018-09-18T19:52:51.611Z,11.03
2018-09-18T19:55:19.677Z,10.37
2018-09-18T19:57:47.778Z,14.73
2018-09-18T20:00:15.908Z,7.40
2018-09-18T20:02:44.030Z,13.33
2018-09-18T20:05:12.441Z,8.50
2018-09-18T20:07:40.543Z,9.17
2018-09-18T20:10:08.619Z,12.57
2018-09-18T20:12:36.778Z,5.67
2018-09-18T20:15:04.930Z,13.20
2018-09-18T20:17:32.999Z,9.80
2018-09-18T20:20:01.088Z,10.67
2018-09-18T20:22:29.180Z,7.13
2018-09-18T20:24:59.899Z,7.17
2018-09-18T20:27:27.993Z,6.20
2018-09-18T20:29:56.058Z,6.87
2018-09-18T20:32:24.174Z,7.47
2018-09-18T20:34:52.290Z,8.40
2018-09-18T20:37:20.429Z,8.03
2018-09-18T20:39:48.486Z,9.73
2018-09-18T20:42:16.598Z,7.23
2018-09-18T20:44:44.666Z,9.43
2018-09-18T20:47:12.811Z,9.33
2018-09-18T20:49:41.046Z,5.50
2018-09-18T20:52:09.158Z,11.57
2018-09-18T20:54:37.222Z,8.30
2018-09-18T20:57:05.314Z,7.77
2018-09-18T20:59:33.401Z,6.13
2018-09-18T21:02:01.568Z,9.70
2018-09-18T21:04:29.568Z,9.80
2018-09-18T21:06:57.715Z,4.70
2018-09-18T21:09:25.854Z,7.47
2018-09-18T21:11:54.176Z,9.23
2018-09-18T21:14:22.276Z,7.67
2018-09-18T21:16:50.406Z,5.93
2018-09-18T21:19:18.638Z,7.13
2018-09-18T21:21:46.714Z,7.50
2018-09-18T21:24:14.826Z,5.00
2018-09-18T21:26:43.007Z,5.37
2018-09-18T21:29:11.511Z,6.90
2018-09-18T21:31:39.701Z,4.53
2018-09-18T21:34:07.921Z,6.73
2018-09-18T21:36:36.141Z,8.13
2018-09-18T21:39:07.197Z,7.40
2018-09-18T21:41:35.327Z,4.20
2018-09-18T21:44:03.482Z,6.70
2018-09-18T21:46:31.675Z,8.93
2018-09-18T21:48:59.776Z,6.53
2018-09-18T21:51:27.909Z,4.90
2018-09-18T21:53:56.024Z,7.50
2018-09-18T21:56:24.161Z,6.33
2018-09-18T21:58:52.268Z,11.33
2018-09-18T22:01:20.452Z,5.20
2018-09-18T22:03:48.542Z,5.57
2018-09-18T22:06:16.982Z,4.37
2018-09-18T22:08:45.203Z,5.77
2018-09-18T22:11:13.373Z,7.47
2018-09-18T22:13:41.884Z,4.80
2018-09-18T22:16:10.206Z,3.67
2018-09-18T22:18:38.560Z,2.80
2018-09-18T22:21:06.741Z,3.50
2018-09-18T22:23:35.131Z,4.60
2018-09-18T22:26:03.339Z,6.10
2018-09-18T22:28:32.047Z,3.00
2018-09-18T22:31:00.270Z,4.43
2018-09-18T22:33:28.548Z,7.53
2018-09-18T22:35:56.619Z,4.83
2018-09-18T22:38:24.770Z,1.90
2018-09-18T22:40:52.929Z,3.17
2018-09-18T22:43:21.074Z,4.97
2018-09-18T22:45:49.282Z,8.93
2018-09-18T22:48:17.373Z,13.87
2018-09-18T22:50:45.447Z,8.30
2018-09-18T22:53:13.588Z,5.90
2018-09-18T22:55:41.740Z,8.57
2018-09-18T22:58:09.812Z,2.67
2018-09-18T23:00:37.969Z,5.20
2018-09-18T23:03:06.106Z,7.43
2018-09-18T23:05:34.164Z,6.13
2018-09-18T23:08:02.256Z,4.67
2018-09-18T23:10:30.371Z,5.27
2018-09-18T23:12:58.462Z,6.40
2018-09-18T23:15:26.599Z,5.93
2018-09-18T23:17:54.688Z,4.80
2018-09-18T23:20:22.775Z,5.53
2018-09-18T23:22:50.879Z,2.80
2018-09-18T23:25:19.016Z,4.13
2018-09-18T23:27:47.087Z,5.20
2018-09-18T23:30:15.178Z,4.23
2018-09-18T23:32:43.272Z,5.13
2018-09-18T23:35:11.342Z,4.60
2018-09-18T23:37:39.454Z,2.93
2018-09-18T23:40:07.629Z,5.57
2018-09-18T23:42:35.750Z,3.50
2018-09-18T23:45:03.926Z,4.97
2018-09-18T23:47:32.019Z,4.20
2018-09-18T23:50:00.419Z,4.93
2018-09-18T23:52:28.469Z,5.07
2018-09-18T23:54:56.620Z,5.17
2018-09-18T23:57:24.793Z,4.97
2018-09-18T23:59:52.879Z,3.47
